sensor_id;sensor_type;location;lat;lon;timestamp;P1;durP1;ratioP1;P2;durP2;ratioP2
35877;SDS011;21982;49.804;24.072;2023-12-14T00:01:13;45.17;;;8.98;;
35877;SDS011;21982;49.804;24.072;2023-12-14T00:03:39;37.95;;;8.80;;
35877;SDS011;21982;49.804;24.072;2023-12-14T00:06:11;63.70;;;11.15;;
35877;SDS011;21982;49.804;24.072;2023-12-14T00:08:37;84.97;;;12.43;;
35877;SDS011;21982;49.804;24.072;2023-12-14T00:11:06;53.72;;;10.65;;
35877;SDS011;21982;49.804;24.072;2023-12-14T00:13:32;162.90;;;17.98;;
35877;SDS011;21982;49.804;24.072;2023-12-14T00:15:58;137.50;;;18.40;;
35877;SDS011;21982;49.804;24.072;2023-12-14T00:18:24;178.02;;;20.65;;
35877;SDS011;21982;49.804;24.072;2023-12-14T00:20:50;127.32;;;17.23;;
35877;SDS011;21982;49.804;24.072;2023-12-14T00:23:15;306.70;;;26.88;;
35877;SDS011;21982;49.804;24.072;2023-12-14T00:25:41;262.15;;;27.90;;
35877;SDS011;21982;49.804;24.072;2023-12-14T00:28:06;293.17;;;29.75;;
35877;SDS011;21982;49.804;24.072;2023-12-14T00:30:32;284.77;;;26.95;;
35877;SDS011;21982;49.804;24.072;2023-12-14T00:32:57;259.98;;;24.35;;
35877;SDS011;21982;49.804;24.072;2023-12-14T00:35:23;227.88;;;24.15;;
35877;SDS011;21982;49.804;24.072;2023-12-14T00:37:48;220.95;;;24.35;;
35877;SDS011;21982;49.804;24.072;2023-12-14T00:40:13;297.95;;;23.67;;
35877;SDS011;21982;49.804;24.072;2023-12-14T00:42:39;225.82;;;22.83;;
35877;SDS011;21982;49.804;24.072;2023-12-14T00:45:04;136.07;;;15.38;;
35877;SDS011;21982;49.804;24.072;2023-12-14T00:47:30;175.35;;;17.88;;
35877;SDS011;21982;49.804;24.072;2023-12-14T00:49:55;67.38;;;9.38;;
35877;SDS011;21982;49.804;24.072;2023-12-14T00:52:21;56.22;;;10.35;;
35877;SDS011;21982;49.804;24.072;2023-12-14T00:54:46;49.97;;;8.75;;
35877;SDS011;21982;49.804;24.072;2023-12-14T00:57:12;44.10;;;9.15;;
35877;SDS011;21982;49.804;24.072;2023-12-14T00:59:37;58.25;;;10.30;;
35877;SDS011;21982;49.804;24.072;2023-12-14T01:02:03;53.97;;;10.02;;
35877;SDS011;21982;49.804;24.072;2023-12-14T01:04:28;63.60;;;10.80;;
35877;SDS011;21982;49.804;24.072;2023-12-14T01:06:53;33.45;;;10.73;;
35877;SDS011;21982;49.804;24.072;2023-12-14T01:09:19;117.40;;;14.60;;
35877;SDS011;21982;49.804;24.072;2023-12-14T01:11:44;136.77;;;15.70;;
35877;SDS011;21982;49.804;24.072;2023-12-14T01:14:10;144.27;;;16.65;;
35877;SDS011;21982;49.804;24.072;2023-12-14T01:16:35;73.38;;;12.48;;
35877;SDS011;21982;49.804;24.072;2023-12-14T01:19:01;96.38;;;14.55;;
35877;SDS011;21982;49.804;24.072;2023-12-14T01:21:26;246.40;;;25.20;;
35877;SDS011;21982;49.804;24.072;2023-12-14T01:23:52;203.68;;;19.23;;
35877;SDS011;21982;49.804;24.072;2023-12-14T01:26:17;102.45;;;12.55;;
35877;SDS011;21982;49.804;24.072;2023-12-14T01:28:43;148.60;;;16.20;;
35877;SDS011;21982;49.804;24.072;2023-12-14T01:31:08;111.00;;;13.55;;
35877;SDS011;21982;49.804;24.072;2023-12-14T01:33:34;111.75;;;13.45;;
35877;SDS011;21982;49.804;24.072;2023-12-14T01:35:59;223.57;;;20.35;;
35877;SDS011;21982;49.804;24.072;2023-12-14T01:38:25;121.40;;;14.25;;
35877;SDS011;21982;49.804;24.072;2023-12-14T01:40:50;114.18;;;13.45;;
35877;SDS011;21982;49.804;24.072;2023-12-14T01:43:16;130.95;;;12.48;;
35877;SDS011;21982;49.804;24.072;2023-12-14T01:45:41;143.00;;;15.25;;
35877;SDS011;21982;49.804;24.072;2023-12-14T01:48:07;74.40;;;12.32;;
35877;SDS011;21982;49.804;24.072;2023-12-14T01:50:32;60.47;;;11.38;;
35877;SDS011;21982;49.804;24.072;2023-12-14T01:52:58;105.97;;;15.38;;
35877;SDS011;21982;49.804;24.072;2023-12-14T01:55:23;99.82;;;13.52;;
35877;SDS011;21982;49.804;24.072;2023-12-14T01:57:50;79.65;;;12.30;;
35877;SDS011;21982;49.804;24.072;2023-12-14T02:03:11;76.57;;;11.43;;
35877;SDS011;21982;49.804;24.072;2023-12-14T02:05:37;132.13;;;16.42;;
35877;SDS011;21982;49.804;24.072;2023-12-14T02:08:02;139.18;;;16.33;;
35877;SDS011;21982;49.804;24.072;2023-12-14T02:10:28;46.80;;;10.93;;
35877;SDS011;21982;49.804;24.072;2023-12-14T02:12:53;74.32;;;11.02;;
35877;SDS011;21982;49.804;24.072;2023-12-14T02:15:19;51.55;;;10.30;;
35877;SDS011;21982;49.804;24.072;2023-12-14T02:17:45;109.40;;;17.08;;
35877;SDS011;21982;49.804;24.072;2023-12-14T02:20:10;85.47;;;12.50;;
35877;SDS011;21982;49.804;24.072;2023-12-14T02:22:49;74.55;;;10.63;;
35877;SDS011;21982;49.804;24.072;2023-12-14T02:27:53;238.40;;;20.83;;
35877;SDS011;21982;49.804;24.072;2023-12-14T02:30:18;109.70;;;11.10;;
35877;SDS011;21982;49.804;24.072;2023-12-14T02:32:44;61.42;;;11.57;;
35877;SDS011;21982;49.804;24.072;2023-12-14T02:35:09;45.33;;;10.18;;
35877;SDS011;21982;49.804;24.072;2023-12-14T02:37:35;180.65;;;18.67;;
35877;SDS011;21982;49.804;24.072;2023-12-14T02:40:08;174.63;;;18.88;;
35877;SDS011;21982;49.804;24.072;2023-12-14T02:42:34;94.65;;;13.13;;
35877;SDS011;21982;49.804;24.072;2023-12-14T02:45:00;160.15;;;16.33;;
35877;SDS011;21982;49.804;24.072;2023-12-14T02:47:27;147.68;;;16.30;;
35877;SDS011;21982;49.804;24.072;2023-12-14T02:49:53;76.90;;;12.05;;
35877;SDS011;21982;49.804;24.072;2023-12-14T02:52:19;80.35;;;9.95;;
35877;SDS011;21982;49.804;24.072;2023-12-14T02:54:44;194.73;;;20.23;;
35877;SDS011;21982;49.804;24.072;2023-12-14T02:57:10;103.18;;;12.07;;
35877;SDS011;21982;49.804;24.072;2023-12-14T02:59:35;164.55;;;17.85;;
35877;SDS011;21982;49.804;24.072;2023-12-14T03:02:01;203.60;;;20.08;;
35877;SDS011;21982;49.804;24.072;2023-12-14T03:04:26;78.47;;;10.50;;
35877;SDS011;21982;49.804;24.072;2023-12-14T03:06:52;213.30;;;20.88;;
35877;SDS011;21982;49.804;24.072;2023-12-14T03:09:17;129.77;;;14.85;;
35877;SDS011;21982;49.804;24.072;2023-12-14T03:11:44;130.55;;;13.27;;
35877;SDS011;21982;49.804;24.072;2023-12-14T03:19:20;66.75;;;9.43;;
35877;SDS011;21982;49.804;24.072;2023-12-14T03:21:45;105.97;;;12.10;;
35877;SDS011;21982;49.804;24.072;2023-12-14T03:24:11;55.00;;;10.13;;
35877;SDS011;21982;49.804;24.072;2023-12-14T03:29:11;155.57;;;19.08;;
35877;SDS011;21982;49.804;24.072;2023-12-14T03:31:37;86.72;;;11.02;;
35877;SDS011;21982;49.804;24.072;2023-12-14T03:34:02;141.43;;;17.02;;
35877;SDS011;21982;49.804;24.072;2023-12-14T03:36:28;135.00;;;15.70;;
35877;SDS011;21982;49.804;24.072;2023-12-14T03:38:53;232.13;;;22.40;;
35877;SDS011;21982;49.804;24.072;2023-12-14T03:41:19;177.75;;;18.40;;
35877;SDS011;21982;49.804;24.072;2023-12-14T03:43:45;127.85;;;14.73;;
35877;SDS011;21982;49.804;24.072;2023-12-14T03:46:11;100.40;;;11.88;;
35877;SDS011;21982;49.804;24.072;2023-12-14T03:48:36;100.60;;;12.30;;
35877;SDS011;21982;49.804;24.072;2023-12-14T03:51:05;60.22;;;11.13;;
35877;SDS011;21982;49.804;24.072;2023-12-14T03:53:31;75.13;;;13.85;;
35877;SDS011;21982;49.804;24.072;2023-12-14T03:55:59;52.75;;;11.40;;
35877;SDS011;21982;49.804;24.072;2023-12-14T03:58:25;54.92;;;9.27;;
35877;SDS011;21982;49.804;24.072;2023-12-14T04:00:51;88.05;;;12.85;;
35877;SDS011;21982;49.804;24.072;2023-12-14T04:05:52;32.97;;;8.20;;
35877;SDS011;21982;49.804;24.072;2023-12-14T04:08:17;18.83;;;7.40;;
35877;SDS011;21982;49.804;24.072;2023-12-14T04:10:43;18.48;;;6.80;;
35877;SDS011;21982;49.804;24.072;2023-12-14T04:13:10;26.55;;;7.35;;
35877;SDS011;21982;49.804;24.072;2023-12-14T04:15:36;14.45;;;5.65;;
35877;SDS011;21982;49.804;24.072;2023-12-14T04:18:01;30.17;;;7.47;;
35877;SDS011;21982;49.804;24.072;2023-12-14T04:20:27;14.63;;;5.40;;
35877;SDS011;21982;49.804;24.072;2023-12-14T04:22:53;16.98;;;5.95;;
35877;SDS011;21982;49.804;24.072;2023-12-14T04:25:18;16.08;;;5.78;;
35877;SDS011;21982;49.804;24.072;2023-12-14T04:27:44;19.95;;;6.80;;
35877;SDS011;21982;49.804;24.072;2023-12-14T04:30:09;15.30;;;5.03;;
35877;SDS011;21982;49.804;24.072;2023-12-14T04:32:36;12.63;;;4.63;;
35877;SDS011;21982;49.804;24.072;2023-12-14T04:35:03;13.55;;;4.57;;
35877;SDS011;21982;49.804;24.072;2023-12-14T04:37:29;17.27;;;4.85;;
35877;SDS011;21982;49.804;24.072;2023-12-14T04:39:55;14.48;;;4.60;;
35877;SDS011;21982;49.804;24.072;2023-12-14T04:42:20;16.52;;;5.03;;
35877;SDS011;21982;49.804;24.072;2023-12-14T04:44:46;22.20;;;4.90;;
35877;SDS011;21982;49.804;24.072;2023-12-14T04:47:12;19.30;;;5.00;;
35877;SDS011;21982;49.804;24.072;2023-12-14T04:49:37;24.73;;;5.65;;
35877;SDS011;21982;49.804;24.072;2023-12-14T04:52:03;15.77;;;5.47;;
35877;SDS011;21982;49.804;24.072;2023-12-14T04:54:28;22.95;;;5.32;;
35877;SDS011;21982;49.804;24.072;2023-12-14T04:56:54;35.60;;;7.43;;
35877;SDS011;21982;49.804;24.072;2023-12-14T04:59:19;26.52;;;6.32;;
35877;SDS011;21982;49.804;24.072;2023-12-14T05:01:44;26.15;;;6.60;;
35877;SDS011;21982;49.804;24.072;2023-12-14T05:06:35;25.64;;;7.18;;
35877;SDS011;21982;49.804;24.072;2023-12-14T05:09:01;42.92;;;8.27;;
35877;SDS011;21982;49.804;24.072;2023-12-14T05:11:29;27.10;;;7.20;;
35877;SDS011;21982;49.804;24.072;2023-12-14T05:13:55;24.00;;;6.95;;
35877;SDS011;21982;49.804;24.072;2023-12-14T05:16:20;28.92;;;6.72;;
35877;SDS011;21982;49.804;24.072;2023-12-14T05:18:46;21.38;;;7.40;;
35877;SDS011;21982;49.804;24.072;2023-12-14T05:21:16;33.42;;;7.18;;
35877;SDS011;21982;49.804;24.072;2023-12-14T05:23:42;34.95;;;8.32;;
35877;SDS011;21982;49.804;24.072;2023-12-14T05:26:11;26.10;;;7.68;;
35877;SDS011;21982;49.804;24.072;2023-12-14T05:28:38;64.28;;;12.07;;
35877;SDS011;21982;49.804;24.072;2023-12-14T05:31:03;54.67;;;12.27;;
35877;SDS011;21982;49.804;24.072;2023-12-14T05:33:29;60.97;;;11.00;;
35877;SDS011;21982;49.804;24.072;2023-12-14T05:35:59;58.40;;;11.30;;
35877;SDS011;21982;49.804;24.072;2023-12-14T05:38:24;48.00;;;9.50;;
35877;SDS011;21982;49.804;24.072;2023-12-14T05:40:50;60.28;;;11.93;;
35877;SDS011;21982;49.804;24.072;2023-12-14T05:43:16;92.85;;;11.80;;
35877;SDS011;21982;49.804;24.072;2023-12-14T05:45:42;74.20;;;11.32;;
35877;SDS011;21982;49.804;24.072;2023-12-14T05:48:08;114.78;;;15.93;;
35877;SDS011;21982;49.804;24.072;2023-12-14T05:50:34;93.50;;;14.80;;
35877;SDS011;21982;49.804;24.072;2023-12-14T05:52:59;97.07;;;14.38;;
35877;SDS011;21982;49.804;24.072;2023-12-14T05:55:24;124.85;;;16.65;;
35877;SDS011;21982;49.804;24.072;2023-12-14T05:57:50;103.32;;;13.63;;
35877;SDS011;21982;49.804;24.072;2023-12-14T06:00:17;138.15;;;17.35;;
35877;SDS011;21982;49.804;24.072;2023-12-14T06:02:43;109.38;;;17.02;;
35877;SDS011;21982;49.804;24.072;2023-12-14T06:05:08;98.85;;;16.58;;
35877;SDS011;21982;49.804;24.072;2023-12-14T06:07:34;207.23;;;20.48;;
35877;SDS011;21982;49.804;24.072;2023-12-14T06:09:59;235.88;;;26.58;;
35877;SDS011;21982;49.804;24.072;2023-12-14T06:12:26;182.52;;;23.30;;
35877;SDS011;21982;49.804;24.072;2023-12-14T06:14:52;125.32;;;17.80;;
35877;SDS011;21982;49.804;24.072;2023-12-14T06:17:17;115.95;;;16.77;;
35877;SDS011;21982;49.804;24.072;2023-12-14T06:19:43;128.32;;;18.55;;
35877;SDS011;21982;49.804;24.072;2023-12-14T06:22:08;136.77;;;18.83;;
35877;SDS011;21982;49.804;24.072;2023-12-14T06:24:33;147.50;;;18.80;;
35877;SDS011;21982;49.804;24.072;2023-12-14T06:29:34;210.63;;;25.67;;
35877;SDS011;21982;49.804;24.072;2023-12-14T06:31:59;117.55;;;18.67;;
35877;SDS011;21982;49.804;24.072;2023-12-14T06:34:25;120.20;;;19.73;;
35877;SDS011;21982;49.804;24.072;2023-12-14T06:36:50;140.75;;;25.05;;
35877;SDS011;21982;49.804;24.072;2023-12-14T06:39:16;74.68;;;17.60;;
35877;SDS011;21982;49.804;24.072;2023-12-14T06:41:41;128.75;;;24.13;;
35877;SDS011;21982;49.804;24.072;2023-12-14T06:44:06;69.40;;;18.55;;
35877;SDS011;21982;49.804;24.072;2023-12-14T06:46:34;155.40;;;26.38;;
35877;SDS011;21982;49.804;24.072;2023-12-14T06:48:59;92.78;;;21.27;;
35877;SDS011;21982;49.804;24.072;2023-12-14T06:51:25;69.10;;;17.15;;
35877;SDS011;21982;49.804;24.072;2023-12-14T06:53:50;50.65;;;17.15;;
35877;SDS011;21982;49.804;24.072;2023-12-14T06:56:16;103.30;;;20.00;;
35877;SDS011;21982;49.804;24.072;2023-12-14T07:04:34;68.90;;;15.90;;
35877;SDS011;21982;49.804;24.072;2023-12-14T07:07:00;66.22;;;16.13;;
35877;SDS011;21982;49.804;24.072;2023-12-14T07:09:26;35.33;;;13.00;;
35877;SDS011;21982;49.804;24.072;2023-12-14T07:11:51;48.75;;;13.25;;
35877;SDS011;21982;49.804;24.072;2023-12-14T07:14:17;36.05;;;11.60;;
35877;SDS011;21982;49.804;24.072;2023-12-14T07:16:42;35.25;;;12.52;;
35877;SDS011;21982;49.804;24.072;2023-12-14T07:19:08;43.65;;;11.43;;
35877;SDS011;21982;49.804;24.072;2023-12-14T07:21:33;36.40;;;11.52;;
35877;SDS011;21982;49.804;24.072;2023-12-14T07:23:59;56.25;;;13.25;;
35877;SDS011;21982;49.804;24.072;2023-12-14T07:26:24;28.95;;;11.55;;
35877;SDS011;21982;49.804;24.072;2023-12-14T07:28:52;35.38;;;13.90;;
35877;SDS011;21982;49.804;24.072;2023-12-14T07:31:18;29.58;;;11.00;;
35877;SDS011;21982;49.804;24.072;2023-12-14T07:33:45;26.35;;;10.35;;
35877;SDS011;21982;49.804;24.072;2023-12-14T07:36:10;31.35;;;10.82;;
35877;SDS011;21982;49.804;24.072;2023-12-14T07:38:36;26.52;;;12.45;;
35877;SDS011;21982;49.804;24.072;2023-12-14T07:41:02;22.65;;;8.52;;
35877;SDS011;21982;49.804;24.072;2023-12-14T07:43:28;22.05;;;8.80;;
35877;SDS011;21982;49.804;24.072;2023-12-14T07:45:53;20.50;;;8.23;;
35877;SDS011;21982;49.804;24.072;2023-12-14T07:48:19;22.80;;;10.75;;
35877;SDS011;21982;49.804;24.072;2023-12-14T07:50:44;25.02;;;12.55;;
35877;SDS011;21982;49.804;24.072;2023-12-14T07:53:10;31.40;;;14.35;;
35877;SDS011;21982;49.804;24.072;2023-12-14T07:55:36;25.20;;;11.70;;
35877;SDS011;21982;49.804;24.072;2023-12-14T07:58:01;23.23;;;11.20;;
35877;SDS011;21982;49.804;24.072;2023-12-14T08:00:27;27.27;;;12.52;;
35877;SDS011;21982;49.804;24.072;2023-12-14T08:02:55;25.55;;;12.20;;
35877;SDS011;21982;49.804;24.072;2023-12-14T08:05:21;23.13;;;11.45;;
35877;SDS011;21982;49.804;24.072;2023-12-14T08:07:46;31.27;;;10.60;;
35877;SDS011;21982;49.804;24.072;2023-12-14T08:10:12;19.77;;;11.07;;
35877;SDS011;21982;49.804;24.072;2023-12-14T08:12:44;35.17;;;16.83;;
35877;SDS011;21982;49.804;24.072;2023-12-14T08:15:10;29.55;;;16.55;;
35877;SDS011;21982;49.804;24.072;2023-12-14T08:17:37;33.05;;;15.68;;
35877;SDS011;21982;49.804;24.072;2023-12-14T08:20:05;30.90;;;16.13;;
35877;SDS011;21982;49.804;24.072;2023-12-14T08:22:34;24.48;;;13.30;;
35877;SDS011;21982;49.804;24.072;2023-12-14T08:24:59;26.08;;;13.75;;
35877;SDS011;21982;49.804;24.072;2023-12-14T08:27:25;28.25;;;15.48;;
35877;SDS011;21982;49.804;24.072;2023-12-14T08:29:54;31.75;;;15.57;;
35877;SDS011;21982;49.804;24.072;2023-12-14T08:32:19;25.48;;;12.77;;
35877;SDS011;21982;49.804;24.072;2023-12-14T08:34:44;23.63;;;14.45;;
35877;SDS011;21982;49.804;24.072;2023-12-14T08:37:12;24.20;;;13.07;;
35877;SDS011;21982;49.804;24.072;2023-12-14T08:39:38;20.60;;;11.00;;
35877;SDS011;21982;49.804;24.072;2023-12-14T08:42:03;17.35;;;9.18;;
35877;SDS011;21982;49.804;24.072;2023-12-14T08:44:29;15.80;;;8.40;;
35877;SDS011;21982;49.804;24.072;2023-12-14T08:46:57;18.75;;;8.85;;
35877;SDS011;21982;49.804;24.072;2023-12-14T08:49:27;16.02;;;9.65;;
35877;SDS011;21982;49.804;24.072;2023-12-14T08:51:52;18.35;;;9.73;;
35877;SDS011;21982;49.804;24.072;2023-12-14T08:54:18;19.70;;;10.07;;
35877;SDS011;21982;49.804;24.072;2023-12-14T08:56:43;14.80;;;8.98;;
35877;SDS011;21982;49.804;24.072;2023-12-14T08:59:09;15.85;;;9.82;;
35877;SDS011;21982;49.804;24.072;2023-12-14T09:01:35;20.67;;;12.05;;
35877;SDS011;21982;49.804;24.072;2023-12-14T09:04:00;17.05;;;9.13;;
35877;SDS011;21982;49.804;24.072;2023-12-14T09:06:25;19.77;;;9.70;;
35877;SDS011;21982;49.804;24.072;2023-12-14T09:08:51;21.85;;;11.02;;
35877;SDS011;21982;49.804;24.072;2023-12-14T09:11:16;17.08;;;10.25;;
35877;SDS011;21982;49.804;24.072;2023-12-14T09:13:42;20.65;;;10.43;;
35877;SDS011;21982;49.804;24.072;2023-12-14T09:16:07;25.45;;;12.48;;
35877;SDS011;21982;49.804;24.072;2023-12-14T09:18:33;23.83;;;12.23;;
35877;SDS011;21982;49.804;24.072;2023-12-14T09:20:59;24.95;;;11.35;;
35877;SDS011;21982;49.804;24.072;2023-12-14T09:23:25;19.88;;;9.73;;
35877;SDS011;21982;49.804;24.072;2023-12-14T09:25:50;24.08;;;10.10;;
35877;SDS011;21982;49.804;24.072;2023-12-14T09:28:17;17.17;;;9.82;;
35877;SDS011;21982;49.804;24.072;2023-12-14T09:30:42;18.95;;;9.68;;
35877;SDS011;21982;49.804;24.072;2023-12-14T09:33:09;13.90;;;8.95;;
35877;SDS011;21982;49.804;24.072;2023-12-14T09:35:35;17.33;;;9.40;;
35877;SDS011;21982;49.804;24.072;2023-12-14T09:38:02;18.50;;;10.15;;
35877;SDS011;21982;49.804;24.072;2023-12-14T09:40:28;18.08;;;9.82;;
35877;SDS011;21982;49.804;24.072;2023-12-14T09:42:54;15.60;;;9.43;;
35877;SDS011;21982;49.804;24.072;2023-12-14T09:45:21;21.90;;;11.77;;
35877;SDS011;21982;49.804;24.072;2023-12-14T09:47:57;18.42;;;10.07;;
35877;SDS011;21982;49.804;24.072;2023-12-14T09:50:25;18.05;;;10.15;;
35877;SDS011;21982;49.804;24.072;2023-12-14T09:52:50;17.92;;;10.73;;
35877;SDS011;21982;49.804;24.072;2023-12-14T09:55:16;14.50;;;8.00;;
35877;SDS011;21982;49.804;24.072;2023-12-14T09:57:41;17.70;;;8.30;;
35877;SDS011;21982;49.804;24.072;2023-12-14T10:00:08;18.23;;;10.18;;
35877;SDS011;21982;49.804;24.072;2023-12-14T10:02:35;21.75;;;11.98;;
35877;SDS011;21982;49.804;24.072;2023-12-14T10:05:01;25.75;;;13.77;;
35877;SDS011;21982;49.804;24.072;2023-12-14T10:07:26;29.95;;;14.07;;
35877;SDS011;21982;49.804;24.072;2023-12-14T10:09:52;20.75;;;10.43;;
35877;SDS011;21982;49.804;24.072;2023-12-14T10:12:18;17.85;;;9.05;;
35877;SDS011;21982;49.804;24.072;2023-12-14T10:14:47;17.00;;;8.52;;
35877;SDS011;21982;49.804;24.072;2023-12-14T10:17:25;22.95;;;13.93;;
35877;SDS011;21982;49.804;24.072;2023-12-14T10:19:56;12.68;;;5.88;;
35877;SDS011;21982;49.804;24.072;2023-12-14T10:22:22;21.05;;;9.75;;
35877;SDS011;21982;49.804;24.072;2023-12-14T10:24:53;14.80;;;7.30;;
35877;SDS011;21982;49.804;24.072;2023-12-14T10:27:19;18.27;;;9.40;;
35877;SDS011;21982;49.804;24.072;2023-12-14T10:29:45;13.02;;;7.50;;
35877;SDS011;21982;49.804;24.072;2023-12-14T10:32:11;12.18;;;6.40;;
35877;SDS011;21982;49.804;24.072;2023-12-14T10:34:37;11.02;;;6.25;;
35877;SDS011;21982;49.804;24.072;2023-12-14T10:37:06;10.07;;;5.05;;
35877;SDS011;21982;49.804;24.072;2023-12-14T10:39:34;11.95;;;5.75;;
35877;SDS011;21982;49.804;24.072;2023-12-14T10:42:02;10.35;;;4.65;;
35877;SDS011;21982;49.804;24.072;2023-12-14T10:44:29;8.50;;;3.70;;
35877;SDS011;21982;49.804;24.072;2023-12-14T10:46:58;10.98;;;5.65;;
35877;SDS011;21982;49.804;24.072;2023-12-14T10:49:24;10.27;;;5.28;;
35877;SDS011;21982;49.804;24.072;2023-12-14T10:51:57;8.50;;;4.68;;
35877;SDS011;21982;49.804;24.072;2023-12-14T10:54:24;7.95;;;5.03;;
35877;SDS011;21982;49.804;24.072;2023-12-14T10:56:54;8.75;;;5.07;;
35877;SDS011;21982;49.804;24.072;2023-12-14T10:59:21;11.10;;;5.82;;
35877;SDS011;21982;49.804;24.072;2023-12-14T11:01:51;9.23;;;5.28;;
35877;SDS011;21982;49.804;24.072;2023-12-14T11:04:18;10.93;;;5.13;;
35877;SDS011;21982;49.804;24.072;2023-12-14T11:09:46;9.23;;;5.05;;
35877;SDS011;21982;49.804;24.072;2023-12-14T11:12:12;13.75;;;7.32;;
35877;SDS011;21982;49.804;24.072;2023-12-14T11:14:38;9.20;;;5.60;;
35877;SDS011;21982;49.804;24.072;2023-12-14T11:17:07;12.15;;;6.65;;
35877;SDS011;21982;49.804;24.072;2023-12-14T11:19:35;11.00;;;6.50;;
35877;SDS011;21982;49.804;24.072;2023-12-14T11:24:37;12.43;;;6.38;;
35877;SDS011;21982;49.804;24.072;2023-12-14T11:27:07;14.20;;;7.28;;
35877;SDS011;21982;49.804;24.072;2023-12-14T11:29:33;11.55;;;7.72;;
35877;SDS011;21982;49.804;24.072;2023-12-14T11:32:02;20.35;;;10.73;;
35877;SDS011;21982;49.804;24.072;2023-12-14T11:34:27;12.85;;;7.07;;
35877;SDS011;21982;49.804;24.072;2023-12-14T11:36:53;13.45;;;6.70;;
35877;SDS011;21982;49.804;24.072;2023-12-14T11:39:20;12.60;;;7.05;;
35877;SDS011;21982;49.804;24.072;2023-12-14T11:42:01;14.25;;;8.02;;
35877;SDS011;21982;49.804;24.072;2023-12-14T11:44:33;13.23;;;7.28;;
35877;SDS011;21982;49.804;24.072;2023-12-14T11:46:59;12.40;;;7.80;;
35877;SDS011;21982;49.804;24.072;2023-12-14T11:49:24;20.10;;;11.32;;
35877;SDS011;21982;49.804;24.072;2023-12-14T11:51:52;19.70;;;9.77;;
35877;SDS011;21982;49.804;24.072;2023-12-14T11:54:18;22.52;;;12.02;;
35877;SDS011;21982;49.804;24.072;2023-12-14T11:56:48;18.15;;;9.85;;
35877;SDS011;21982;49.804;24.072;2023-12-14T11:59:15;20.05;;;12.32;;
35877;SDS011;21982;49.804;24.072;2023-12-14T12:02:03;19.00;;;9.85;;
35877;SDS011;21982;49.804;24.072;2023-12-14T12:04:28;20.02;;;10.95;;
35877;SDS011;21982;49.804;24.072;2023-12-14T12:07:00;16.42;;;10.52;;
35877;SDS011;21982;49.804;24.072;2023-12-14T12:11:59;13.55;;;8.68;;
35877;SDS011;21982;49.804;24.072;2023-12-14T12:14:24;15.90;;;8.70;;
35877;SDS011;21982;49.804;24.072;2023-12-14T12:16:50;20.05;;;11.02;;
35877;SDS011;21982;49.804;24.072;2023-12-14T12:19:17;19.40;;;12.18;;
35877;SDS011;21982;49.804;24.072;2023-12-14T12:21:43;22.92;;;12.93;;
35877;SDS011;21982;49.804;24.072;2023-12-14T12:24:08;20.75;;;11.13;;
35877;SDS011;21982;49.804;24.072;2023-12-14T12:26:35;18.52;;;9.82;;
35877;SDS011;21982;49.804;24.072;2023-12-14T12:29:01;18.33;;;10.13;;
35877;SDS011;21982;49.804;24.072;2023-12-14T12:31:28;16.00;;;9.15;;
35877;SDS011;21982;49.804;24.072;2023-12-14T12:33:54;17.88;;;8.82;;
35877;SDS011;21982;49.804;24.072;2023-12-14T12:36:19;24.65;;;12.55;;
35877;SDS011;21982;49.804;24.072;2023-12-14T12:38:46;18.35;;;9.55;;
35877;SDS011;21982;49.804;24.072;2023-12-14T12:41:11;17.30;;;8.55;;
35877;SDS011;21982;49.804;24.072;2023-12-14T12:43:37;16.50;;;8.57;;
35877;SDS011;21982;49.804;24.072;2023-12-14T12:46:02;16.52;;;9.48;;
35877;SDS011;21982;49.804;24.072;2023-12-14T12:48:28;17.45;;;9.70;;
35877;SDS011;21982;49.804;24.072;2023-12-14T12:50:53;16.35;;;10.18;;
35877;SDS011;21982;49.804;24.072;2023-12-14T12:53:19;23.65;;;10.70;;
35877;SDS011;21982;49.804;24.072;2023-12-14T12:55:46;24.98;;;14.60;;
35877;SDS011;21982;49.804;24.072;2023-12-14T12:58:12;21.48;;;9.95;;
35877;SDS011;21982;49.804;24.072;2023-12-14T13:00:39;14.75;;;8.05;;
35877;SDS011;21982;49.804;24.072;2023-12-14T13:03:05;15.05;;;8.48;;
35877;SDS011;21982;49.804;24.072;2023-12-14T13:05:30;19.40;;;8.82;;
35877;SDS011;21982;49.804;24.072;2023-12-14T13:07:56;12.60;;;7.82;;
35877;SDS011;21982;49.804;24.072;2023-12-14T13:10:22;19.48;;;10.68;;
35877;SDS011;21982;49.804;24.072;2023-12-14T13:12:52;16.27;;;8.25;;
35877;SDS011;21982;49.804;24.072;2023-12-14T13:15:17;20.48;;;10.82;;
35877;SDS011;21982;49.804;24.072;2023-12-14T13:17:47;19.63;;;10.57;;
35877;SDS011;21982;49.804;24.072;2023-12-14T13:20:12;23.38;;;11.07;;
35877;SDS011;21982;49.804;24.072;2023-12-14T13:22:38;18.65;;;9.52;;
35877;SDS011;21982;49.804;24.072;2023-12-14T13:25:04;16.65;;;9.10;;
35877;SDS011;21982;49.804;24.072;2023-12-14T13:27:30;16.00;;;8.23;;
35877;SDS011;21982;49.804;24.072;2023-12-14T13:29:55;19.33;;;11.63;;
35877;SDS011;21982;49.804;24.072;2023-12-14T13:32:21;18.13;;;9.52;;
35877;SDS011;21982;49.804;24.072;2023-12-14T13:34:46;18.48;;;10.07;;
35877;SDS011;21982;49.804;24.072;2023-12-14T13:37:11;17.55;;;9.63;;
35877;SDS011;21982;49.804;24.072;2023-12-14T13:39:38;19.13;;;9.75;;
35877;SDS011;21982;49.804;24.072;2023-12-14T13:42:04;21.17;;;10.48;;
35877;SDS011;21982;49.804;24.072;2023-12-14T13:44:31;14.57;;;7.93;;
35877;SDS011;21982;49.804;24.072;2023-12-14T13:46:59;13.40;;;6.97;;
35877;SDS011;21982;49.804;24.072;2023-12-14T13:49:28;15.82;;;7.63;;
35877;SDS011;21982;49.804;24.072;2023-12-14T13:51:53;19.20;;;9.20;;
35877;SDS011;21982;49.804;24.072;2023-12-14T13:54:19;14.63;;;7.78;;
35877;SDS011;21982;49.804;24.072;2023-12-14T13:56:47;14.57;;;7.45;;
35877;SDS011;21982;49.804;24.072;2023-12-14T13:59:13;13.02;;;7.30;;
35877;SDS011;21982;49.804;24.072;2023-12-14T14:01:42;15.73;;;9.13;;
35877;SDS011;21982;49.804;24.072;2023-12-14T14:04:07;17.50;;;9.50;;
35877;SDS011;21982;49.804;24.072;2023-12-14T14:06:34;17.63;;;10.18;;
35877;SDS011;21982;49.804;24.072;2023-12-14T14:08:59;15.73;;;8.10;;
35877;SDS011;21982;49.804;24.072;2023-12-14T14:11:25;11.88;;;6.57;;
35877;SDS011;21982;49.804;24.072;2023-12-14T14:13:50;16.92;;;7.85;;
35877;SDS011;21982;49.804;24.072;2023-12-14T14:16:16;12.63;;;7.13;;
35877;SDS011;21982;49.804;24.072;2023-12-14T14:18:41;13.07;;;6.53;;
35877;SDS011;21982;49.804;24.072;2023-12-14T14:21:07;14.40;;;6.85;;
35877;SDS011;21982;49.804;24.072;2023-12-14T14:23:33;12.07;;;6.22;;
35877;SDS011;21982;49.804;24.072;2023-12-14T14:25:59;14.23;;;7.72;;
35877;SDS011;21982;49.804;24.072;2023-12-14T14:28:25;14.63;;;7.72;;
35877;SDS011;21982;49.804;24.072;2023-12-14T14:30:51;29.73;;;17.90;;
35877;SDS011;21982;49.804;24.072;2023-12-14T14:33:16;14.02;;;8.90;;
35877;SDS011;21982;49.804;24.072;2023-12-14T14:35:44;16.77;;;10.70;;
35877;SDS011;21982;49.804;24.072;2023-12-14T15:36:03;9.88;;;4.90;;
35877;SDS011;21982;49.804;24.072;2023-12-14T15:38:29;10.05;;;5.60;;